createdAt,value
2023-03-30T00:00:26.957Z,24.63
2023-03-30T00:03:28.724Z,26.10
2023-03-30T00:06:30.284Z,25.63
2023-03-30T00:09:31.699Z,24.80
2023-03-30T00:12:33.097Z,25.75
2023-03-30T00:15:34.544Z,23.55
2023-03-30T00:18:36.927Z,23.80
2023-03-30T00:21:38.414Z,22.57
2023-03-30T00:24:39.789Z,23.13
2023-03-30T00:27:41.916Z,22.35
2023-03-30T00:30:43.366Z,22.13
2023-03-30T00:33:47.179Z,21.48
2023-03-30T00:36:49.248Z,21.38
2023-03-30T00:39:50.677Z,21.40
2023-03-30T00:42:52.072Z,21.13
2023-03-30T00:45:56.276Z,19.98
2023-03-30T00:49:01.927Z,20.25
2023-03-30T00:52:03.803Z,20.95
2023-03-30T00:55:08.277Z,20.60
2023-03-30T00:58:10.105Z,20.98
2023-03-30T01:01:16.566Z,21.40
2023-03-30T01:04:18.030Z,20.67
2023-03-30T01:07:19.525Z,20.27
2023-03-30T01:10:21.075Z,19.75
2023-03-30T01:13:22.694Z,19.00
2023-03-30T01:16:36.481Z,18.92
2023-03-30T01:23:53.597Z,18.75
2023-03-30T01:26:59.101Z,18.27
2023-03-30T01:30:14.071Z,18.80
2023-03-30T01:33:43.311Z,17.77
2023-03-30T01:36:54.240Z,19.15
2023-03-30T01:40:04.744Z,18.42
2023-03-30T01:43:14.973Z,18.90
2023-03-30T01:46:22.782Z,18.58
2023-03-30T01:49:38.836Z,18.85
2023-03-30T01:52:56.087Z,20.05
2023-03-30T01:56:23.420Z,20.15
2023-03-30T01:59:37.333Z,18.80
2023-03-30T02:02:41.859Z,18.02
2023-03-30T02:05:46.562Z,18.38
2023-03-30T02:08:50.350Z,19.05
2023-03-30T02:11:52.961Z,18.50
2023-03-30T02:14:58.720Z,18.70
2023-03-30T02:18:00.749Z,18.65
2023-03-30T02:21:02.483Z,17.30
2023-03-30T02:24:09.188Z,18.08
2023-03-30T02:27:11.242Z,18.58
2023-03-30T02:30:13.169Z,18.20
2023-03-30T02:33:24.950Z,17.85
2023-03-30T02:36:45.427Z,17.52
2023-03-30T02:39:56.302Z,18.58
2023-03-30T02:43:03.823Z,17.55
2023-03-30T02:46:14.854Z,17.45
2023-03-30T02:49:47.786Z,15.85
2023-03-30T02:53:07.210Z,18.13
2023-03-30T02:56:33.268Z,18.05
2023-03-30T03:00:00.551Z,17.60
2023-03-30T03:03:10.242Z,17.63
2023-03-30T03:06:12.816Z,18.98
2023-03-30T03:09:20.084Z,16.92
2023-03-30T03:12:21.530Z,16.92
2023-03-30T03:15:22.977Z,16.20
2023-03-30T03:18:41.013Z,15.13
2023-03-30T03:21:42.584Z,16.48
2023-03-30T03:24:44.332Z,17.30
2023-03-30T03:28:04.363Z,14.95
2023-03-30T03:31:29.127Z,16.48
2023-03-30T03:34:30.594Z,17.00
2023-03-30T03:37:35.353Z,15.82
2023-03-30T03:40:37.556Z,16.60
2023-03-30T03:43:39.072Z,16.23
2023-03-30T03:46:40.926Z,16.73
2023-03-30T03:49:42.458Z,16.00
2023-03-30T03:52:44.538Z,16.70
2023-03-30T03:55:46.288Z,15.57
2023-03-30T03:58:47.745Z,16.13
2023-03-30T04:01:49.751Z,15.38
2023-03-30T04:04:51.240Z,14.82
2023-03-30T04:07:53.210Z,15.77
2023-03-30T04:10:54.679Z,15.35
2023-03-30T04:14:08.345Z,15.00
2023-03-30T04:17:22.733Z,14.55
2023-03-30T04:20:50.762Z,14.27
2023-03-30T04:24:18.272Z,14.63
2023-03-30T04:27:26.021Z,16.73
2023-03-30T04:30:30.407Z,14.32
2023-03-30T04:33:51.695Z,15.75
2023-03-30T04:37:16.835Z,14.20
2023-03-30T04:40:30.287Z,14.18
2023-03-30T04:44:03.517Z,13.88
2023-03-30T04:47:31.223Z,13.40
2023-03-30T04:50:51.644Z,13.68
2023-03-30T04:57:15.523Z,12.48
2023-03-30T05:00:35.564Z,12.63
2023-03-30T05:03:55.779Z,11.85
2023-03-30T05:07:19.871Z,11.63
2023-03-30T05:10:49.773Z,11.68
2023-03-30T05:14:20.437Z,10.73
2023-03-30T05:17:53.840Z,11.18
2023-03-30T05:21:18.291Z,11.10
2023-03-30T05:24:32.046Z,10.93
2023-03-30T05:27:50.897Z,10.13
2023-03-30T05:31:03.305Z,9.90
2023-03-30T05:34:22.995Z,9.98
2023-03-30T05:37:44.111Z,9.40
2023-03-30T05:41:14.597Z,9.05
2023-03-30T05:44:38.846Z,9.70
2023-03-30T05:48:00.706Z,9.57
2023-03-30T05:51:22.436Z,9.65
2023-03-30T05:54:39.847Z,9.80
2023-03-30T05:57:57.513Z,10.13
2023-03-30T06:01:25.085Z,10.48
2023-03-30T06:04:27.333Z,10.85
2023-03-30T06:07:29.124Z,10.50
2023-03-30T06:10:30.858Z,11.45
2023-03-30T06:13:32.492Z,11.00
2023-03-30T06:16:34.284Z,9.85
2023-03-30T06:19:36.565Z,9.77
2023-03-30T06:22:41.402Z,8.48
2023-03-30T06:25:53.252Z,8.35
2023-03-30T06:29:00.132Z,8.80
2023-03-30T06:32:02.481Z,7.88
2023-03-30T06:35:22.561Z,8.52
2023-03-30T06:38:25.787Z,8.40
2023-03-30T06:41:29.780Z,8.30
2023-03-30T06:44:32.066Z,8.52
2023-03-30T06:47:36.821Z,8.55
2023-03-30T06:50:39.175Z,8.57
2023-03-30T06:53:47.168Z,8.43
2023-03-30T06:56:49.044Z,8.65
2023-03-30T06:59:52.336Z,7.97
2023-03-30T07:03:17.853Z,7.32
2023-03-30T07:06:26.613Z,5.60
2023-03-30T07:09:28.171Z,6.45
2023-03-30T07:12:29.639Z,6.07
2023-03-30T07:15:31.624Z,5.82
2023-03-30T07:18:33.094Z,5.18
2023-03-30T07:21:34.669Z,6.93
2023-03-30T07:24:36.154Z,7.13
2023-03-30T07:27:38.160Z,7.68
2023-03-30T07:30:39.713Z,7.80
2023-03-30T07:33:43.152Z,7.03
2023-03-30T07:36:48.441Z,5.72
2023-03-30T07:39:50.366Z,5.57
2023-03-30T07:42:52.345Z,5.75
2023-03-30T07:45:54.849Z,6.03
2023-03-30T07:49:03.212Z,5.15
2023-03-30T07:52:06.074Z,5.15
2023-03-30T07:55:15.926Z,5.20
2023-03-30T07:58:27.455Z,4.55
2023-03-30T08:01:28.896Z,4.55
2023-03-30T08:04:30.475Z,4.45
2023-03-30T08:07:32.227Z,4.60
2023-03-30T08:10:42.602Z,5.53
2023-03-30T08:13:44.613Z,4.60
2023-03-30T08:16:46.066Z,4.45
2023-03-30T08:19:47.798Z,5.03
2023-03-30T08:22:49.302Z,4.85
2023-03-30T08:25:50.701Z,4.47
2023-03-30T08:28:52.638Z,4.70
2023-03-30T08:31:54.102Z,4.30
2023-03-30T08:34:55.537Z,3.88
2023-03-30T08:37:56.971Z,4.60
2023-03-30T08:40:58.491Z,4.05
2023-03-30T08:44:24.196Z,4.13
2023-03-30T08:47:36.437Z,3.80
2023-03-30T08:50:37.956Z,4.05
2023-03-30T08:53:40.027Z,3.65
2023-03-30T08:57:05.478Z,3.70
2023-03-30T09:00:44.322Z,3.58
2023-03-30T09:04:00.679Z,3.67
2023-03-30T09:07:18.792Z,3.30
2023-03-30T09:10:21.599Z,3.90
2023-03-30T09:13:27.911Z,4.10
2023-03-30T09:16:58.451Z,3.60
2023-03-30T09:20:13.878Z,3.28
2023-03-30T09:23:17.201Z,4.47
2023-03-30T09:26:51.557Z,4.68
2023-03-30T09:29:54.152Z,4.22
2023-03-30T09:33:00.195Z,5.15
2023-03-30T09:36:16.709Z,5.07
2023-03-30T09:39:24.756Z,4.05
2023-03-30T09:42:46.709Z,4.30
2023-03-30T09:45:48.157Z,4.03
2023-03-30T09:48:49.951Z,3.80
2023-03-30T09:52:07.047Z,3.85
2023-03-30T09:55:20.694Z,3.53
2023-03-30T09:58:32.661Z,3.42
2023-03-30T10:01:37.210Z,3.00
2023-03-30T10:04:56.089Z,3.03
2023-03-30T10:08:00.599Z,2.85
2023-03-30T10:11:02.033Z,2.50
2023-03-30T10:14:03.993Z,2.47
2023-03-30T10:17:06.590Z,2.50
2023-03-30T10:20:34.816Z,2.30
2023-03-30T10:23:40.426Z,2.45
2023-03-30T10:26:46.265Z,2.17
2023-03-30T10:29:48.931Z,2.30
2023-03-30T10:32:52.494Z,2.45
2023-03-30T10:35:56.945Z,2.65
2023-03-30T10:39:25.784Z,2.10
2023-03-30T10:42:31.681Z,2.30
2023-03-30T10:45:39.768Z,1.80
2023-03-30T10:48:47.068Z,2.22
2023-03-30T10:52:23.531Z,2.42
2023-03-30T10:55:39.239Z,1.50
2023-03-30T10:59:17.381Z,1.58
2023-03-30T11:02:37.402Z,1.55
2023-03-30T11:05:43.000Z,1.20
2023-03-30T11:08:47.385Z,1.40
2023-03-30T11:11:58.253Z,1.10
2023-03-30T11:15:06.377Z,1.40
2023-03-30T11:18:35.465Z,1.30
2023-03-30T11:22:07.442Z,2.38
2023-03-30T11:25:23.073Z,2.08
2023-03-30T11:28:42.829Z,1.75
2023-03-30T11:31:52.644Z,1.40
2023-03-30T11:35:19.120Z,2.10
2023-03-30T11:38:23.884Z,2.15
2023-03-30T11:41:44.547Z,2.17
2023-03-30T11:44:46.009Z,1.80
2023-03-30T11:48:02.687Z,1.63
2023-03-30T11:51:38.328Z,1.95
2023-03-30T11:55:03.542Z,2.70
2023-03-30T11:58:24.848Z,1.75
2023-03-30T12:01:52.392Z,1.77
2023-03-30T12:05:21.198Z,2.67
2023-03-30T12:08:31.995Z,1.80
2023-03-30T12:11:59.558Z,2.28
2023-03-30T12:15:19.640Z,2.22
2023-03-30T12:18:50.027Z,2.88
2023-03-30T12:22:13.103Z,2.72
2023-03-30T12:25:42.955Z,2.97
2023-03-30T12:29:15.186Z,2.30
2023-03-30T12:32:29.354Z,2.80
2023-03-30T12:35:49.358Z,2.72
2023-03-30T12:38:53.998Z,2.30
2023-03-30T12:42:04.693Z,2.35
2023-03-30T12:45:15.351Z,3.15
2023-03-30T12:48:22.062Z,2.40
2023-03-30T12:51:32.177Z,2.10
2023-03-30T12:54:52.480Z,1.77
2023-03-30T12:57:53.895Z,1.60
2023-03-30T13:01:10.585Z,1.70
2023-03-30T13:04:23.888Z,2.38
2023-03-30T13:07:31.498Z,2.20
2023-03-30T13:10:39.578Z,2.08
2023-03-30T13:14:00.564Z,1.55
2023-03-30T13:17:02.016Z,1.33
2023-03-30T13:20:28.280Z,1.50
2023-03-30T13:23:36.452Z,1.67
2023-03-30T13:26:44.430Z,1.65
2023-03-30T13:30:12.274Z,1.55
2023-03-30T13:33:22.235Z,1.30
2023-03-30T13:36:33.658Z,1.63
2023-03-30T13:40:08.970Z,1.30
2023-03-30T13:43:31.841Z,1.25
2023-03-30T13:46:50.325Z,1.30
2023-03-30T13:49:59.367Z,1.52
2023-03-30T13:53:08.179Z,1.05
2023-03-30T13:56:10.706Z,1.80
2023-03-30T13:59:16.812Z,1.30
2023-03-30T14:02:20.817Z,1.27
2023-03-30T14:05:25.465Z,1.40
2023-03-30T14:08:26.906Z,1.48
2023-03-30T14:11:38.615Z,1.38
2023-03-30T14:14:44.417Z,1.88
2023-03-30T14:17:48.296Z,2.70
2023-03-30T14:20:55.445Z,2.15
2023-03-30T14:23:56.886Z,1.80
2023-03-30T14:27:02.835Z,3.13
2023-03-30T14:30:19.147Z,1.33
2023-03-30T14:33:22.175Z,1.67
2023-03-30T14:39:25.751Z,1.70
2023-03-30T14:42:32.361Z,2.20
2023-03-30T14:45:33.927Z,2.22
2023-03-30T14:48:39.503Z,2.10
2023-03-30T14:51:42.736Z,1.92
2023-03-30T14:54:54.448Z,1.58
2023-03-30T14:58:04.655Z,1.63
2023-03-30T15:01:13.538Z,2.03
2023-03-30T15:04:17.491Z,2.60
2023-03-30T15:07:19.765Z,1.52
2023-03-30T15:10:32.546Z,2.40
2023-03-30T15:13:41.563Z,1.83
2023-03-30T15:16:43.231Z,1.88
2023-03-30T15:19:47.444Z,1.17
2023-03-30T15:25:55.839Z,1.15
2023-03-30T15:28:58.960Z,1.10
2023-03-30T15:35:15.496Z,1.92
2023-03-30T15:38:18.223Z,2.58
2023-03-30T15:41:42.300Z,3.05
2023-03-30T15:44:43.704Z,2.30
2023-03-30T15:47:45.186Z,2.20
2023-03-30T15:50:52.664Z,2.20
2023-03-30T15:54:14.276Z,3.22
2023-03-30T15:57:23.720Z,2.67
2023-03-30T16:00:29.721Z,2.05
2023-03-30T16:03:34.022Z,3.08
2023-03-30T16:06:35.461Z,2.70
2023-03-30T16:09:36.936Z,2.58
2023-03-30T16:12:43.486Z,3.03
2023-03-30T16:15:45.058Z,3.08
2023-03-30T16:18:46.498Z,2.67
2023-03-30T16:21:47.951Z,2.38
2023-03-30T16:24:49.352Z,2.50
2023-03-30T16:27:50.781Z,2.60
2023-03-30T16:30:55.380Z,2.08
2023-03-30T16:33:56.831Z,2.92
2023-03-30T16:36:58.251Z,2.25
2023-03-30T16:39:59.635Z,2.13
2023-03-30T16:43:01.102Z,3.47
2023-03-30T16:46:02.896Z,2.22
2023-03-30T16:49:04.334Z,2.30
2023-03-30T16:52:05.788Z,2.30
2023-03-30T16:55:07.697Z,2.28
2023-03-30T16:58:11.909Z,3.42
2023-03-30T17:01:14.890Z,2.42
2023-03-30T17:04:16.789Z,2.63
2023-03-30T17:07:18.186Z,2.65
2023-03-30T17:10:23.186Z,3.05
2023-03-30T17:13:24.604Z,2.67
2023-03-30T17:16:26.039Z,2.97
2023-03-30T17:19:27.513Z,3.45
2023-03-30T17:22:29.012Z,3.25
2023-03-30T17:25:30.653Z,2.78
2023-03-30T17:28:34.527Z,3.08
2023-03-30T17:31:36.094Z,3.30
2023-03-30T17:34:37.637Z,3.75
2023-03-30T17:37:39.232Z,9.13
2023-03-30T17:40:40.647Z,3.78
2023-03-30T17:43:42.476Z,4.70
2023-03-30T17:46:43.932Z,4.18
2023-03-30T17:49:45.457Z,3.15
2023-03-30T17:52:47.431Z,2.88
2023-03-30T17:55:51.279Z,4.93
2023-03-30T17:58:52.749Z,3.10
2023-03-30T18:01:54.181Z,3.75
2023-03-30T18:04:55.628Z,3.78
2023-03-30T18:07:57.049Z,3.45
2023-03-30T18:11:00.273Z,3.47
2023-03-30T18:17:06.759Z,2.83
2023-03-30T18:20:17.994Z,3.83
2023-03-30T18:23:20.286Z,3.63
2023-03-30T18:26:21.697Z,3.77
2023-03-30T18:29:23.110Z,3.45
2023-03-30T18:32:34.071Z,3.00
2023-03-30T18:35:43.830Z,3.55
2023-03-30T18:41:47.180Z,3.17
2023-03-30T18:44:48.610Z,4.35
2023-03-30T18:47:50.170Z,3.80
2023-03-30T18:50:53.603Z,3.25
2023-03-30T18:53:55.016Z,3.17
2023-03-30T18:56:56.429Z,3.75
2023-03-30T18:59:58.304Z,3.60
2023-03-30T19:03:00.237Z,4.28
2023-03-30T19:06:01.717Z,3.63
2023-03-30T19:09:03.154Z,4.32
2023-03-30T19:12:04.850Z,2.78
2023-03-30T19:15:06.956Z,4.18
2023-03-30T19:18:08.693Z,3.38
2023-03-30T19:21:16.179Z,3.70
2023-03-30T19:24:17.566Z,4.68
2023-03-30T19:27:18.940Z,3.80
2023-03-30T19:30:21.025Z,4.50
2023-03-30T19:33:22.426Z,3.83
2023-03-30T19:36:25.222Z,3.75
2023-03-30T19:39:26.725Z,3.13
2023-03-30T19:42:28.168Z,3.78
2023-03-30T19:45:29.586Z,3.53
2023-03-30T19:48:30.953Z,3.40
2023-03-30T19:51:32.403Z,4.35
2023-03-30T19:54:33.841Z,4.63
2023-03-30T19:57:36.641Z,3.55
2023-03-30T20:00:38.532Z,3.28
2023-03-30T20:03:40.208Z,4.57
2023-03-30T20:06:41.726Z,4.30
2023-03-30T20:09:43.317Z,3.63
2023-03-30T20:12:44.916Z,5.38
2023-03-30T20:15:46.306Z,3.40
2023-03-30T20:18:52.852Z,4.55
2023-03-30T20:21:58.421Z,3.90
2023-03-30T20:24:59.829Z,4.78
2023-03-30T20:28:01.245Z,4.65
2023-03-30T20:31:03.470Z,4.35
2023-03-30T20:34:05.069Z,4.33
2023-03-30T20:37:06.517Z,4.60
2023-03-30T20:40:08.534Z,4.72
2023-03-30T20:43:10.238Z,4.10
2023-03-30T20:46:13.816Z,4.30
2023-03-30T20:49:15.232Z,4.32
2023-03-30T20:52:16.888Z,5.43
2023-03-30T20:55:18.452Z,4.93
2023-03-30T20:58:19.918Z,4.60
2023-03-30T21:01:24.354Z,4.45
2023-03-30T21:04:26.094Z,4.70
2023-03-30T21:07:27.599Z,5.40
2023-03-30T21:10:29.013Z,4.30
2023-03-30T21:13:30.424Z,6.10
2023-03-30T21:16:32.640Z,5.00
2023-03-30T21:19:34.136Z,4.90
2023-03-30T21:22:35.559Z,5.55
2023-03-30T21:25:36.959Z,4.18
2023-03-30T21:28:39.396Z,5.18
2023-03-30T21:31:40.782Z,6.40
2023-03-30T21:34:42.175Z,4.90
2023-03-30T21:37:43.554Z,5.55
2023-03-30T21:40:56.374Z,5.28
2023-03-30T21:43:57.805Z,4.53
2023-03-30T21:46:59.297Z,4.85
2023-03-30T21:50:00.956Z,5.60
2023-03-30T21:53:02.480Z,5.65
2023-03-30T21:56:04.406Z,5.45
2023-03-30T21:59:05.985Z,5.05
2023-03-30T22:02:07.554Z,5.85
2023-03-30T22:05:09.319Z,4.85
2023-03-30T22:08:12.908Z,4.90
2023-03-30T22:11:20.270Z,5.80
2023-03-30T22:14:22.495Z,5.47
2023-03-30T22:17:23.909Z,6.03
2023-03-30T22:20:25.420Z,5.82
2023-03-30T22:23:26.965Z,8.20
2023-03-30T22:26:28.401Z,6.53
2023-03-30T22:29:29.878Z,6.35
2023-03-30T22:32:32.424Z,5.82
2023-03-30T22:35:44.500Z,6.17
2023-03-30T22:38:47.755Z,6.32
2023-03-30T22:41:49.156Z,5.82
2023-03-30T22:44:50.545Z,4.78
2023-03-30T22:47:52.274Z,4.65
2023-03-30T22:50:53.705Z,4.90
2023-03-30T22:53:56.574Z,5.63
2023-03-30T22:56:59.142Z,4.35
2023-03-30T23:00:00.578Z,4.85
2023-03-30T23:03:02.053Z,4.75
2023-03-30T23:06:03.833Z,5.60
2023-03-30T23:09:05.789Z,4.68
2023-03-30T23:12:07.472Z,4.95
2023-03-30T23:15:10.536Z,4.28
2023-03-30T23:18:11.941Z,4.90
2023-03-30T23:21:13.695Z,5.18
2023-03-30T23:24:15.129Z,5.50
2023-03-30T23:27:16.618Z,5.50
2023-03-30T23:30:18.109Z,5.20
2023-03-30T23:33:19.590Z,5.60
2023-03-30T23:36:22.582Z,4.80
2023-03-30T23:39:24.071Z,4.97
2023-03-30T23:42:25.659Z,5.68
2023-03-30T23:45:27.045Z,5.43
2023-03-30T23:48:28.491Z,4.50
2023-03-30T23:51:29.973Z,4.60
2023-03-30T23:54:31.418Z,5.28
2023-03-30T23:57:32.938Z,5.00
